sensor_id;sensor_type;location;lat;lon;timestamp;pressure;altitude;pressure_sealevel;temperature;humidity
28648;BME280;17137;51.494;-0.262;2023-02-02T00:00:25;50456.23;;;-145.72;72.72
28648;BME280;17137;51.494;-0.262;2023-02-02T00:00:55;50459.80;;;-145.72;72.62
28648;BME280;17137;51.494;-0.262;2023-02-02T00:01:26;50466.70;;;-145.72;72.51
28648;BME280;17137;51.494;-0.262;2023-02-02T00:01:58;50465.84;;;-145.72;72.74
28648;BME280;17137;51.494;-0.262;2023-02-02T00:02:28;50459.06;;;-145.72;73.13
28648;BME280;17137;51.494;-0.262;2023-02-02T00:02:58;50460.66;;;-145.72;72.55
28648;BME280;17137;51.494;-0.262;2023-02-02T00:03:29;50473.73;;;-145.72;72.64
28648;BME280;17137;51.494;-0.262;2023-02-02T00:03:59;50465.10;;;-145.72;72.45
28648;BME280;17137;51.494;-0.262;2023-02-02T00:04:32;50464.61;;;-145.72;72.38
28648;BME280;17137;51.494;-0.262;2023-02-02T00:05:03;50471.26;;;-145.72;73.10
28648;BME280;17137;51.494;-0.262;2023-02-02T00:05:33;50467.81;;;-145.72;72.83
28648;BME280;17137;51.494;-0.262;2023-02-02T00:06:04;50459.18;;;-145.72;72.80
28648;BME280;17137;51.494;-0.262;2023-02-02T00:06:34;50459.80;;;-145.72;72.80
28648;BME280;17137;51.494;-0.262;2023-02-02T00:07:04;50471.02;;;-145.72;72.85
28648;BME280;17137;51.494;-0.262;2023-02-02T00:07:35;50477.55;;;-145.72;72.89
28648;BME280;17137;51.494;-0.262;2023-02-02T00:08:05;50466.70;;;-145.72;72.98
28648;BME280;17137;51.494;-0.262;2023-02-02T00:08:35;50465.10;;;-145.72;72.91
28648;BME280;17137;51.494;-0.262;2023-02-02T00:09:05;50467.94;;;-145.72;72.87
28648;BME280;17137;51.494;-0.262;2023-02-02T00:09:36;50473.24;;;-145.72;72.73
28648;BME280;17137;51.494;-0.262;2023-02-02T00:10:07;50471.14;;;-145.72;72.70
28648;BME280;17137;51.494;-0.262;2023-02-02T00:10:37;50461.53;;;-145.72;72.85
28648;BME280;17137;51.494;-0.262;2023-02-02T00:11:08;50447.84;;;-145.72;73.20
28648;BME280;17137;51.494;-0.262;2023-02-02T00:11:39;50457.95;;;-145.72;73.06
28648;BME280;17137;51.494;-0.262;2023-02-02T00:12:09;50463.75;;;-145.72;72.80
28648;BME280;17137;51.494;-0.262;2023-02-02T00:12:39;50471.51;;;-145.72;72.45
28648;BME280;17137;51.494;-0.262;2023-02-02T00:13:10;50468.43;;;-145.72;72.24
28648;BME280;17137;51.494;-0.262;2023-02-02T00:13:41;50462.02;;;-145.72;72.33
28648;BME280;17137;51.494;-0.262;2023-02-02T00:14:12;50462.64;;;-145.72;72.18
28648;BME280;17137;51.494;-0.262;2023-02-02T00:14:43;50457.21;;;-145.72;71.86
28648;BME280;17137;51.494;-0.262;2023-02-02T00:15:13;50458.44;;;-145.72;71.59
28648;BME280;17137;51.494;-0.262;2023-02-02T00:15:43;50468.55;;;-145.72;71.81
28648;BME280;17137;51.494;-0.262;2023-02-02T00:16:36;50458.57;;;-145.72;71.76
28648;BME280;17137;51.494;-0.262;2023-02-02T00:17:08;50458.07;;;-145.72;72.16
28648;BME280;17137;51.494;-0.262;2023-02-02T00:17:39;50470.16;;;-145.72;71.90
28648;BME280;17137;51.494;-0.262;2023-02-02T00:18:10;50463.25;;;-145.72;71.83
28648;BME280;17137;51.494;-0.262;2023-02-02T00:18:40;50453.02;;;-145.72;71.66
28648;BME280;17137;51.494;-0.262;2023-02-02T00:19:14;50465.96;;;-145.72;71.52
28648;BME280;17137;51.494;-0.262;2023-02-02T00:19:45;50463.25;;;-145.72;71.75
28648;BME280;17137;51.494;-0.262;2023-02-02T00:20:15;50462.39;;;-145.72;71.90
28648;BME280;17137;51.494;-0.262;2023-02-02T00:20:46;50468.68;;;-145.72;72.79
28648;BME280;17137;51.494;-0.262;2023-02-02T00:21:16;50474.72;;;-145.72;73.59
28648;BME280;17137;51.494;-0.262;2023-02-02T00:21:47;50471.02;;;-145.72;73.28
28648;BME280;17137;51.494;-0.262;2023-02-02T00:22:17;50469.29;;;-145.72;73.41
28648;BME280;17137;51.494;-0.262;2023-02-02T00:22:48;50467.69;;;-145.72;72.97
28648;BME280;17137;51.494;-0.262;2023-02-02T00:23:18;50457.83;;;-145.72;73.18
28648;BME280;17137;51.494;-0.262;2023-02-02T00:23:49;50478.78;;;-145.72;73.12
28648;BME280;17137;51.494;-0.262;2023-02-02T00:24:19;50460.05;;;-145.72;73.55
28648;BME280;17137;51.494;-0.262;2023-02-02T00:24:54;50476.69;;;-145.72;73.68
28648;BME280;17137;51.494;-0.262;2023-02-02T00:25:25;50472.50;;;-145.72;73.91
28648;BME280;17137;51.494;-0.262;2023-02-02T00:25:55;50463.13;;;-145.72;74.11
28648;BME280;17137;51.494;-0.262;2023-02-02T00:26:26;50485.81;;;-145.72;74.16
28648;BME280;17137;51.494;-0.262;2023-02-02T00:26:58;50477.68;;;-145.72;73.90
28648;BME280;17137;51.494;-0.262;2023-02-02T00:27:28;50476.69;;;-145.72;73.75
28648;BME280;17137;51.494;-0.262;2023-02-02T00:27:59;50473.48;;;-145.72;73.36
28648;BME280;17137;51.494;-0.262;2023-02-02T00:28:29;50444.14;;;-145.72;73.11
28648;BME280;17137;51.494;-0.262;2023-02-02T00:29:00;50455.86;;;-145.72;72.80
28648;BME280;17137;51.494;-0.262;2023-02-02T00:29:31;50463.75;;;-145.72;72.52
28648;BME280;17137;51.494;-0.262;2023-02-02T00:30:02;50455.12;;;-145.72;72.43
28648;BME280;17137;51.494;-0.262;2023-02-02T00:30:32;50457.21;;;-145.72;72.41
28648;BME280;17137;51.494;-0.262;2023-02-02T00:31:02;50461.77;;;-145.72;72.34
28648;BME280;17137;51.494;-0.262;2023-02-02T00:31:33;50462.02;;;-145.72;72.37
28648;BME280;17137;51.494;-0.262;2023-02-02T00:32:04;50456.47;;;-145.72;72.23
28648;BME280;17137;51.494;-0.262;2023-02-02T00:32:34;50464.36;;;-145.72;72.16
28648;BME280;17137;51.494;-0.262;2023-02-02T00:33:05;50458.44;;;-145.72;72.01
28648;BME280;17137;51.494;-0.262;2023-02-02T00:33:35;50464.24;;;-145.72;72.19
28648;BME280;17137;51.494;-0.262;2023-02-02T00:34:05;50461.53;;;-145.72;72.22
28648;BME280;17137;51.494;-0.262;2023-02-02T00:34:36;50453.88;;;-145.72;72.35
28648;BME280;17137;51.494;-0.262;2023-02-02T00:35:07;50467.20;;;-145.72;72.41
28648;BME280;17137;51.494;-0.262;2023-02-02T00:35:40;50459.80;;;-145.72;72.47
28648;BME280;17137;51.494;-0.262;2023-02-02T00:36:10;50456.47;;;-145.72;72.44
28648;BME280;17137;51.494;-0.262;2023-02-02T00:36:42;50459.55;;;-145.72;72.33
28648;BME280;17137;51.494;-0.262;2023-02-02T00:37:13;50461.53;;;-145.72;72.95
28648;BME280;17137;51.494;-0.262;2023-02-02T00:37:43;50459.06;;;-145.72;72.93
28648;BME280;17137;51.494;-0.262;2023-02-02T00:38:13;50459.06;;;-145.72;72.92
28648;BME280;17137;51.494;-0.262;2023-02-02T00:38:45;50464.98;;;-145.72;72.79
28648;BME280;17137;51.494;-0.262;2023-02-02T00:39:17;50474.47;;;-145.72;72.81
28648;BME280;17137;51.494;-0.262;2023-02-02T00:39:48;50454.87;;;-145.72;72.63
28648;BME280;17137;51.494;-0.262;2023-02-02T00:40:18;50463.99;;;-145.72;72.35
28648;BME280;17137;51.494;-0.262;2023-02-02T00:40:49;50460.05;;;-145.72;72.02
28648;BME280;17137;51.494;-0.262;2023-02-02T00:41:19;50455.36;;;-145.72;71.49
28648;BME280;17137;51.494;-0.262;2023-02-02T00:41:50;50461.03;;;-145.72;71.12
28648;BME280;17137;51.494;-0.262;2023-02-02T00:42:20;50446.36;;;-145.72;71.00
28648;BME280;17137;51.494;-0.262;2023-02-02T00:42:50;50454.99;;;-145.72;70.79
28648;BME280;17137;51.494;-0.262;2023-02-02T00:43:21;50460.54;;;-145.72;70.63
28648;BME280;17137;51.494;-0.262;2023-02-02T00:43:51;50443.53;;;-145.72;70.68
28648;BME280;17137;51.494;-0.262;2023-02-02T00:44:22;50459.92;;;-145.72;70.82
28648;BME280;17137;51.494;-0.262;2023-02-02T00:44:52;50449.32;;;-145.72;70.65
28648;BME280;17137;51.494;-0.262;2023-02-02T00:45:22;50451.66;;;-145.72;70.56
28648;BME280;17137;51.494;-0.262;2023-02-02T00:45:53;50478.66;;;-145.72;71.42
28648;BME280;17137;51.494;-0.262;2023-02-02T00:46:23;50462.88;;;-145.72;71.98
28648;BME280;17137;51.494;-0.262;2023-02-02T00:46:54;50474.72;;;-145.72;72.86
28648;BME280;17137;51.494;-0.262;2023-02-02T00:47:24;50471.14;;;-145.72;72.76
28648;BME280;17137;51.494;-0.262;2023-02-02T00:47:54;50463.13;;;-145.72;72.70
28648;BME280;17137;51.494;-0.262;2023-02-02T00:48:25;50456.10;;;-145.72;73.01
28648;BME280;17137;51.494;-0.262;2023-02-02T00:48:55;50447.72;;;-145.72;72.45
28648;BME280;17137;51.494;-0.262;2023-02-02T00:49:25;50454.87;;;-145.72;71.91
28648;BME280;17137;51.494;-0.262;2023-02-02T00:49:55;50447.23;;;-145.72;71.79
28648;BME280;17137;51.494;-0.262;2023-02-02T00:50:26;50459.31;;;-145.72;71.68
28648;BME280;17137;51.494;-0.262;2023-02-02T00:50:56;50457.95;;;-145.72;71.49
28648;BME280;17137;51.494;-0.262;2023-02-02T00:51:27;50443.65;;;-145.72;70.97
28648;BME280;17137;51.494;-0.262;2023-02-02T00:51:57;50444.39;;;-145.72;70.45
28648;BME280;17137;51.494;-0.262;2023-02-02T00:52:27;50431.94;;;-145.72;70.00
28648;BME280;17137;51.494;-0.262;2023-02-02T00:52:58;50444.14;;;-145.72;69.60
28648;BME280;17137;51.494;-0.262;2023-02-02T00:53:28;50447.60;;;-145.72;69.44
28648;BME280;17137;51.494;-0.262;2023-02-02T00:53:59;50447.72;;;-145.72;69.26
28648;BME280;17137;51.494;-0.262;2023-02-02T00:54:29;50440.57;;;-145.72;68.96
28648;BME280;17137;51.494;-0.262;2023-02-02T00:54:59;50446.24;;;-145.72;68.48
28648;BME280;17137;51.494;-0.262;2023-02-02T00:55:30;50451.29;;;-145.72;68.52
28648;BME280;17137;51.494;-0.262;2023-02-02T00:56:00;50460.17;;;-145.72;68.73
28648;BME280;17137;51.494;-0.262;2023-02-02T00:56:31;50458.57;;;-145.72;69.02
28648;BME280;17137;51.494;-0.262;2023-02-02T00:57:01;50442.17;;;-145.72;68.78
28648;BME280;17137;51.494;-0.262;2023-02-02T00:57:32;50446.86;;;-145.72;68.43
28648;BME280;17137;51.494;-0.262;2023-02-02T00:58:02;50443.90;;;-145.72;68.31
28648;BME280;17137;51.494;-0.262;2023-02-02T00:58:33;50445.50;;;-145.72;68.44
28648;BME280;17137;51.494;-0.262;2023-02-02T00:59:03;50460.79;;;-145.72;70.07
28648;BME280;17137;51.494;-0.262;2023-02-02T00:59:33;50442.79;;;-145.72;69.48
28648;BME280;17137;51.494;-0.262;2023-02-02T01:00:06;50446.61;;;-145.72;69.89
28648;BME280;17137;51.494;-0.262;2023-02-02T01:00:37;50461.53;;;-145.72;69.85
28648;BME280;17137;51.494;-0.262;2023-02-02T01:01:14;50457.21;;;-145.72;69.98
28648;BME280;17137;51.494;-0.262;2023-02-02T01:01:45;50450.31;;;-145.72;69.96
28648;BME280;17137;51.494;-0.262;2023-02-02T01:02:15;50441.31;;;-145.72;70.36
28648;BME280;17137;51.494;-0.262;2023-02-02T01:02:46;50451.66;;;-145.72;70.16
28648;BME280;17137;51.494;-0.262;2023-02-02T01:03:16;50448.46;;;-145.72;70.33
28648;BME280;17137;51.494;-0.262;2023-02-02T01:03:47;50465.35;;;-145.72;69.81
28648;BME280;17137;51.494;-0.262;2023-02-02T01:04:18;50451.05;;;-145.72;69.08
28648;BME280;17137;51.494;-0.262;2023-02-02T01:04:48;50435.89;;;-145.72;68.92
28648;BME280;17137;51.494;-0.262;2023-02-02T01:05:19;50454.25;;;-145.72;68.39
28648;BME280;17137;51.494;-0.262;2023-02-02T01:05:50;50453.88;;;-145.72;69.03
28648;BME280;17137;51.494;-0.262;2023-02-02T01:06:20;50452.03;;;-145.72;68.88
28648;BME280;17137;51.494;-0.262;2023-02-02T01:06:50;50461.53;;;-145.72;68.91
28648;BME280;17137;51.494;-0.262;2023-02-02T01:07:21;50445.38;;;-145.72;68.63
28648;BME280;17137;51.494;-0.262;2023-02-02T01:07:51;50445.50;;;-145.72;68.48
28648;BME280;17137;51.494;-0.262;2023-02-02T01:08:21;50452.53;;;-145.72;68.96
28648;BME280;17137;51.494;-0.262;2023-02-02T01:08:52;50445.13;;;-145.72;68.88
28648;BME280;17137;51.494;-0.262;2023-02-02T01:09:22;50452.03;;;-145.72;68.75
28648;BME280;17137;51.494;-0.262;2023-02-02T01:09:52;50449.94;;;-145.72;68.67
28648;BME280;17137;51.494;-0.262;2023-02-02T01:10:23;50446.49;;;-145.72;68.65
28648;BME280;17137;51.494;-0.262;2023-02-02T01:10:53;50458.44;;;-145.72;68.71
28648;BME280;17137;51.494;-0.262;2023-02-02T01:11:28;50470.77;;;-145.72;68.93
28648;BME280;17137;51.494;-0.262;2023-02-02T01:11:58;50447.35;;;-145.72;69.30
28648;BME280;17137;51.494;-0.262;2023-02-02T01:12:28;50453.64;;;-145.72;69.32
28648;BME280;17137;51.494;-0.262;2023-02-02T01:12:59;50449.69;;;-145.72;69.45
28648;BME280;17137;51.494;-0.262;2023-02-02T01:13:29;50448.21;;;-145.72;69.23
28648;BME280;17137;51.494;-0.262;2023-02-02T01:14:00;50454.25;;;-145.72;69.09
28648;BME280;17137;51.494;-0.262;2023-02-02T01:14:30;50441.06;;;-145.72;69.25
28648;BME280;17137;51.494;-0.262;2023-02-02T01:15:00;50443.65;;;-145.72;69.11
28648;BME280;17137;51.494;-0.262;2023-02-02T01:15:31;50461.40;;;-145.72;69.53
28648;BME280;17137;51.494;-0.262;2023-02-02T01:16:03;50456.35;;;-145.72;69.53
28648;BME280;17137;51.494;-0.262;2023-02-02T01:16:33;50461.90;;;-145.72;69.53
28648;BME280;17137;51.494;-0.262;2023-02-02T01:17:04;50446.61;;;-145.72;68.94
28648;BME280;17137;51.494;-0.262;2023-02-02T01:17:34;50457.21;;;-145.72;68.78
28648;BME280;17137;51.494;-0.262;2023-02-02T01:18:04;50454.62;;;-145.72;68.73
28648;BME280;17137;51.494;-0.262;2023-02-02T01:18:35;50449.08;;;-145.72;68.40
28648;BME280;17137;51.494;-0.262;2023-02-02T01:19:05;50452.40;;;-145.72;68.39
28648;BME280;17137;51.494;-0.262;2023-02-02T01:19:35;50448.21;;;-145.72;68.18
28648;BME280;17137;51.494;-0.262;2023-02-02T01:20:09;50444.27;;;-145.72;68.20
28648;BME280;17137;51.494;-0.262;2023-02-02T01:20:44;50448.09;;;-145.72;68.56
28648;BME280;17137;51.494;-0.262;2023-02-02T01:21:14;50451.42;;;-145.72;68.37
28648;BME280;17137;51.494;-0.262;2023-02-02T01:21:44;50466.21;;;-145.72;68.42
28648;BME280;17137;51.494;-0.262;2023-02-02T01:22:15;50460.79;;;-145.72;68.65
28648;BME280;17137;51.494;-0.262;2023-02-02T01:22:46;50453.76;;;-145.72;68.87
28648;BME280;17137;51.494;-0.262;2023-02-02T01:23:16;50458.44;;;-145.72;69.19
28648;BME280;17137;51.494;-0.262;2023-02-02T01:23:47;50454.87;;;-145.72;68.95
28648;BME280;17137;51.494;-0.262;2023-02-02T01:24:17;50445.25;;;-145.72;68.86
28648;BME280;17137;51.494;-0.262;2023-02-02T01:24:48;50446.12;;;-145.72;69.54
28648;BME280;17137;51.494;-0.262;2023-02-02T01:25:18;50452.28;;;-145.72;69.44
28648;BME280;17137;51.494;-0.262;2023-02-02T01:25:52;50460.54;;;-145.72;69.46
28648;BME280;17137;51.494;-0.262;2023-02-02T01:26:23;50456.60;;;-145.72;69.69
28648;BME280;17137;51.494;-0.262;2023-02-02T01:26:53;50441.80;;;-145.72;69.86
28648;BME280;17137;51.494;-0.262;2023-02-02T01:27:24;50468.18;;;-145.72;69.79
28648;BME280;17137;51.494;-0.262;2023-02-02T01:27:54;50454.99;;;-145.72;71.14
28648;BME280;17137;51.494;-0.262;2023-02-02T01:28:26;50449.94;;;-145.72;70.85
28648;BME280;17137;51.494;-0.262;2023-02-02T01:28:57;50453.27;;;-145.72;70.21
28648;BME280;17137;51.494;-0.262;2023-02-02T01:29:27;50459.68;;;-145.72;69.75
28648;BME280;17137;51.494;-0.262;2023-02-02T01:29:57;50456.35;;;-145.72;69.43
28648;BME280;17137;51.494;-0.262;2023-02-02T01:30:28;50456.97;;;-145.72;69.53
28648;BME280;17137;51.494;-0.262;2023-02-02T01:31:03;50467.44;;;-145.72;69.60
28648;BME280;17137;51.494;-0.262;2023-02-02T01:31:34;50459.80;;;-145.72;69.41
28648;BME280;17137;51.494;-0.262;2023-02-02T01:32:04;50452.77;;;-145.72;69.26
28648;BME280;17137;51.494;-0.262;2023-02-02T01:32:34;50449.45;;;-145.72;69.01
28648;BME280;17137;51.494;-0.262;2023-02-02T01:33:05;50464.98;;;-145.72;69.82
28648;BME280;17137;51.494;-0.262;2023-02-02T01:33:35;50465.22;;;-145.72;70.13
28648;BME280;17137;51.494;-0.262;2023-02-02T01:34:06;50462.76;;;-145.72;69.87
28648;BME280;17137;51.494;-0.262;2023-02-02T01:34:37;50456.10;;;-145.72;69.94
28648;BME280;17137;51.494;-0.262;2023-02-02T01:35:07;50454.38;;;-145.72;69.80
28648;BME280;17137;51.494;-0.262;2023-02-02T01:35:44;50476.32;;;-145.72;70.11
28648;BME280;17137;51.494;-0.262;2023-02-02T01:36:16;50455.36;;;-145.72;69.75
28648;BME280;17137;51.494;-0.262;2023-02-02T01:36:47;50460.17;;;-145.72;69.69
28648;BME280;17137;51.494;-0.262;2023-02-02T01:37:17;50460.17;;;-145.72;69.91
28648;BME280;17137;51.494;-0.262;2023-02-02T01:37:48;50462.14;;;-145.72;70.43
28648;BME280;17137;51.494;-0.262;2023-02-02T01:38:19;50461.65;;;-145.72;70.90
28648;BME280;17137;51.494;-0.262;2023-02-02T01:38:50;50466.33;;;-145.72;70.69
28648;BME280;17137;51.494;-0.262;2023-02-02T01:39:20;50451.29;;;-145.72;70.74
28648;BME280;17137;51.494;-0.262;2023-02-02T01:39:50;50460.17;;;-145.72;70.77
28648;BME280;17137;51.494;-0.262;2023-02-02T01:40:21;50471.14;;;-145.72;70.91
28648;BME280;17137;51.494;-0.262;2023-02-02T01:40:54;50455.86;;;-145.72;70.88
28648;BME280;17137;51.494;-0.262;2023-02-02T01:41:25;50458.69;;;-145.72;70.72
28648;BME280;17137;51.494;-0.262;2023-02-02T01:41:56;50471.14;;;-145.72;70.42
28648;BME280;17137;51.494;-0.262;2023-02-02T01:42:26;50487.78;;;-145.72;70.94
28648;BME280;17137;51.494;-0.262;2023-02-02T01:42:56;50465.96;;;-145.72;70.72
28648;BME280;17137;51.494;-0.262;2023-02-02T01:43:28;50465.96;;;-145.72;70.61
28648;BME280;17137;51.494;-0.262;2023-02-02T01:44:00;50486.43;;;-145.72;70.89
28648;BME280;17137;51.494;-0.262;2023-02-02T01:45:12;50471.02;;;-145.72;70.53
28648;BME280;17137;51.494;-0.262;2023-02-02T01:45:43;50462.76;;;-145.72;70.44
28648;BME280;17137;51.494;-0.262;2023-02-02T01:46:15;50446.86;;;-145.72;70.10
28648;BME280;17137;51.494;-0.262;2023-02-02T01:46:46;50471.39;;;-145.72;70.38
28648;BME280;17137;51.494;-0.262;2023-02-02T01:47:17;50469.66;;;-145.72;71.15
28648;BME280;17137;51.494;-0.262;2023-02-02T01:47:56;50462.02;;;-145.72;71.10
28648;BME280;17137;51.494;-0.262;2023-02-02T01:48:31;50475.21;;;-145.72;71.18
28648;BME280;17137;51.494;-0.262;2023-02-02T01:49:07;50468.68;;;-145.72;70.90
28648;BME280;17137;51.494;-0.262;2023-02-02T01:49:39;50452.53;;;-145.72;70.50
28648;BME280;17137;51.494;-0.262;2023-02-02T01:50:11;50459.80;;;-145.72;70.93
28648;BME280;17137;51.494;-0.262;2023-02-02T01:50:43;50459.92;;;-145.72;71.05
28648;BME280;17137;51.494;-0.262;2023-02-02T01:51:18;50463.75;;;-145.72;71.23
28648;BME280;17137;51.494;-0.262;2023-02-02T01:51:52;50472.99;;;-145.72;72.27
28648;BME280;17137;51.494;-0.262;2023-02-02T01:52:27;50459.06;;;-145.72;72.18
28648;BME280;17137;51.494;-0.262;2023-02-02T01:53:00;50474.59;;;-145.72;72.23
28648;BME280;17137;51.494;-0.262;2023-02-02T01:53:32;50473.85;;;-145.72;72.15
28648;BME280;17137;51.494;-0.262;2023-02-02T01:54:05;50460.42;;;-145.72;72.09
28648;BME280;17137;51.494;-0.262;2023-02-02T01:54:39;50476.07;;;-145.72;71.90
28648;BME280;17137;51.494;-0.262;2023-02-02T01:55:12;50458.44;;;-145.72;71.68
28648;BME280;17137;51.494;-0.262;2023-02-02T01:55:43;50456.72;;;-145.72;71.63
28648;BME280;17137;51.494;-0.262;2023-02-02T01:56:21;50459.06;;;-145.72;71.16
28648;BME280;17137;51.494;-0.262;2023-02-02T01:56:56;50458.69;;;-145.72;70.81
28648;BME280;17137;51.494;-0.262;2023-02-02T01:57:35;50463.87;;;-145.72;70.77
28648;BME280;17137;51.494;-0.262;2023-02-02T01:58:09;50468.92;;;-145.72;70.80
28648;BME280;17137;51.494;-0.262;2023-02-02T01:58:40;50464.12;;;-145.72;70.65
28648;BME280;17137;51.494;-0.262;2023-02-02T01:59:13;50465.22;;;-145.72;70.82
28648;BME280;17137;51.494;-0.262;2023-02-02T01:59:51;50459.31;;;-145.72;70.89
28648;BME280;17137;51.494;-0.262;2023-02-02T02:00:23;50463.01;;;-145.72;70.74
28648;BME280;17137;51.494;-0.262;2023-02-02T02:00:54;50462.88;;;-145.72;70.53
28648;BME280;17137;51.494;-0.262;2023-02-02T02:01:25;50451.42;;;-145.72;70.49
28648;BME280;17137;51.494;-0.262;2023-02-02T02:01:55;50466.21;;;-145.72;70.62
28648;BME280;17137;51.494;-0.262;2023-02-02T02:02:27;50464.36;;;-145.72;70.83
28648;BME280;17137;51.494;-0.262;2023-02-02T02:03:01;50467.69;;;-145.72;71.32
28648;BME280;17137;51.494;-0.262;2023-02-02T02:03:35;50465.47;;;-145.72;71.68
28648;BME280;17137;51.494;-0.262;2023-02-02T02:04:06;50467.57;;;-145.72;72.49
28648;BME280;17137;51.494;-0.262;2023-02-02T02:04:37;50463.25;;;-145.72;72.34
28648;BME280;17137;51.494;-0.262;2023-02-02T02:05:08;50465.72;;;-145.72;72.38
28648;BME280;17137;51.494;-0.262;2023-02-02T02:05:42;50462.02;;;-145.72;72.50
28648;BME280;17137;51.494;-0.262;2023-02-02T02:06:15;50460.91;;;-145.72;72.46
28648;BME280;17137;51.494;-0.262;2023-02-02T02:06:46;50472.62;;;-145.72;72.61
28648;BME280;17137;51.494;-0.262;2023-02-02T02:07:17;50467.07;;;-145.72;72.18
28648;BME280;17137;51.494;-0.262;2023-02-02T02:07:49;50456.72;;;-145.72;71.79
28648;BME280;17137;51.494;-0.262;2023-02-02T02:08:23;50458.20;;;-145.72;71.40
28648;BME280;17137;51.494;-0.262;2023-02-02T02:08:57;50465.72;;;-145.72;71.33
28648;BME280;17137;51.494;-0.262;2023-02-02T02:09:28;50458.57;;;-145.72;71.12
28648;BME280;17137;51.494;-0.262;2023-02-02T02:09:58;50463.01;;;-145.72;71.03
28648;BME280;17137;51.494;-0.262;2023-02-02T02:10:28;50453.88;;;-145.72;71.03
28648;BME280;17137;51.494;-0.262;2023-02-02T02:10:59;50470.16;;;-145.72;71.73
28648;BME280;17137;51.494;-0.262;2023-02-02T02:11:30;50467.20;;;-145.72;71.70
28648;BME280;17137;51.494;-0.262;2023-02-02T02:12:00;50470.65;;;-145.72;71.40
28648;BME280;17137;51.494;-0.262;2023-02-02T02:12:30;50458.94;;;-145.72;71.22
28648;BME280;17137;51.494;-0.262;2023-02-02T02:13:01;50465.84;;;-145.72;71.41
28648;BME280;17137;51.494;-0.262;2023-02-02T02:13:34;50470.53;;;-145.72;71.59
28648;BME280;17137;51.494;-0.262;2023-02-02T02:14:08;50461.77;;;-145.72;72.02
28648;BME280;17137;51.494;-0.262;2023-02-02T02:14:39;50463.75;;;-145.72;72.20
28648;BME280;17137;51.494;-0.262;2023-02-02T02:15:10;50474.72;;;-145.72;72.10
28648;BME280;17137;51.494;-0.262;2023-02-02T02:15:45;50460.54;;;-145.72;72.14
28648;BME280;17137;51.494;-0.262;2023-02-02T02:16:23;50455.98;;;-145.72;72.05
28648;BME280;17137;51.494;-0.262;2023-02-02T02:17:12;50456.35;;;-145.72;72.33
28648;BME280;17137;51.494;-0.262;2023-02-02T02:17:54;50468.68;;;-145.72;72.91
28648;BME280;17137;51.494;-0.262;2023-02-02T02:18:33;50475.70;;;-145.72;72.93
28648;BME280;17137;51.494;-0.262;2023-02-02T02:19:18;50459.43;;;-145.72;72.64
28648;BME280;17137;51.494;-0.262;2023-02-02T02:20:16;50453.02;;;-145.72;72.75
28648;BME280;17137;51.494;-0.262;2023-02-02T02:21:32;50459.31;;;-145.72;71.99
28648;BME280;17137;51.494;-0.262;2023-02-02T02:22:08;50469.05;;;-145.72;71.44
28648;BME280;17137;51.494;-0.262;2023-02-02T02:22:56;50462.27;;;-145.72;71.43
28648;BME280;17137;51.494;-0.262;2023-02-02T02:23:59;50459.18;;;-145.72;70.94
28648;BME280;17137;51.494;-0.262;2023-02-02T02:24:59;50444.14;;;-145.72;70.65
28648;BME280;17137;51.494;-0.262;2023-02-02T02:25:50;50452.77;;;-145.72;70.83
28648;BME280;17137;51.494;-0.262;2023-02-02T02:26:45;50465.47;;;-145.72;70.97
28648;BME280;17137;51.494;-0.262;2023-02-02T02:28:07;50462.76;;;-145.72;70.88
28648;BME280;17137;51.494;-0.262;2023-02-02T02:29:26;50459.55;;;-145.72;70.93
28648;BME280;17137;51.494;-0.262;2023-02-02T02:30:23;50461.90;;;-145.72;71.84
28648;BME280;17137;51.494;-0.262;2023-02-02T02:32:24;50451.91;;;-145.72;72.21
28648;BME280;17137;51.494;-0.262;2023-02-02T02:32:59;50461.77;;;-145.72;72.16
28648;BME280;17137;51.494;-0.262;2023-02-02T02:33:36;50451.91;;;-145.72;71.70
28648;BME280;17137;51.494;-0.262;2023-02-02T02:34:15;50469.29;;;-145.72;71.84
28648;BME280;17137;51.494;-0.262;2023-02-02T02:34:52;50460.29;;;-145.72;71.69
28648;BME280;17137;51.494;-0.262;2023-02-02T02:35:31;50460.66;;;-145.72;71.64
28648;BME280;17137;51.494;-0.262;2023-02-02T02:36:09;50472.50;;;-145.72;72.06
28648;BME280;17137;51.494;-0.262;2023-02-02T02:36:47;50474.59;;;-145.72;71.98
28648;BME280;17137;51.494;-0.262;2023-02-02T02:37:28;50468.92;;;-145.72;72.33
28648;BME280;17137;51.494;-0.262;2023-02-02T02:38:08;50483.59;;;-145.72;73.02
28648;BME280;17137;51.494;-0.262;2023-02-02T02:38:43;50479.15;;;-145.72;73.35
28648;BME280;17137;51.494;-0.262;2023-02-02T02:39:24;50463.87;;;-145.72;73.04
28648;BME280;17137;51.494;-0.262;2023-02-02T02:40:02;50467.07;;;-145.72;72.47
28648;BME280;17137;51.494;-0.262;2023-02-02T02:40:36;50461.65;;;-145.72;72.01
28648;BME280;17137;51.494;-0.262;2023-02-02T02:41:12;50476.44;;;-145.72;72.67
28648;BME280;17137;51.494;-0.262;2023-02-02T02:41:50;50484.21;;;-145.72;73.08
28648;BME280;17137;51.494;-0.262;2023-02-02T02:42:24;50471.51;;;-145.72;72.94
28648;BME280;17137;51.494;-0.262;2023-02-02T02:42:59;50465.96;;;-145.72;72.93
28648;BME280;17137;51.494;-0.262;2023-02-02T02:43:33;50458.69;;;-145.72;73.64
28648;BME280;17137;51.494;-0.262;2023-02-02T02:44:09;50465.22;;;-145.72;73.65
28648;BME280;17137;51.494;-0.262;2023-02-02T02:44:40;50465.22;;;-145.72;73.51
28648;BME280;17137;51.494;-0.262;2023-02-02T02:45:12;50473.11;;;-145.72;73.60
28648;BME280;17137;51.494;-0.262;2023-02-02T02:45:44;50472.99;;;-145.72;73.20
28648;BME280;17137;51.494;-0.262;2023-02-02T02:46:14;50462.27;;;-145.72;72.90
28648;BME280;17137;51.494;-0.262;2023-02-02T02:46:45;50480.76;;;-145.72;73.48
28648;BME280;17137;51.494;-0.262;2023-02-02T02:47:16;50476.94;;;-145.72;73.29
28648;BME280;17137;51.494;-0.262;2023-02-02T02:47:49;50478.78;;;-145.72;73.12
28648;BME280;17137;51.494;-0.262;2023-02-02T02:48:20;50463.75;;;-145.72;72.87
28648;BME280;17137;51.494;-0.262;2023-02-02T02:48:57;50472.74;;;-145.72;73.31
28648;BME280;17137;51.494;-0.262;2023-02-02T02:49:27;50473.98;;;-145.72;73.01
28648;BME280;17137;51.494;-0.262;2023-02-02T02:49:58;50465.72;;;-145.72;72.85